Humberborg — PHFC — position and weather

sailwx.info

Track history (hours):
 
Tides and Currents Weather Stations Pressure Air Temp Water Temp Dewpoint Dewpoint Depression Visibility Wind Speed Wind Dir Waves Ship Positions

Humberborg

Last reported at 2014-Aug-22 09:30 UTC. Time now 2014-Aug-22 09:56 UTC.
Position N 51°16' E 003°51'.

Length 114 m; draft 6.2 m.

Type: Cargo ship. MMSI: 246012000.

Date/timePositionNaut miles runAvg speedWind from/ knotsBaromVisibWave heightAir tempDewpointWater temp
2014-Aug-22 09:30N 51°16' E 003°51'0 0.0
2014-Aug-22 08:30N 51°16' E 003°51'0 0.0
2014-Aug-22 07:33N 51°16' E 003°51'0 0.0
2014-Aug-22 06:30N 51°16' E 003°51'0 0.0
2014-Aug-22 05:33N 51°16' E 003°51'0 0.0
2014-Aug-22 04:33N 51°16' E 003°51'0 0.0
2014-Aug-22 03:33N 51°16' E 003°51'0 0.0
2014-Aug-22 02:33N 51°16' E 003°51'0 0.0
2014-Aug-22 01:33N 51°16' E 003°51'0 0.0
2014-Aug-22 00:33N 51°16' E 003°51'0 0.0
2014-Aug-21 23:33N 51°16' E 003°51'0 0.0
2014-Aug-21 22:33N 51°16' E 003°51'0 0.0
2014-Aug-21 21:33N 51°16' E 003°51'0 0.0
2014-Aug-21 20:33N 51°16' E 003°51'0 0.0
2014-Aug-21 19:32N 51°16' E 003°51'0 0.0
2014-Aug-21 18:33N 51°16' E 003°51'0 0.0
2014-Aug-21 17:33N 51°16' E 003°51'0 0.0
2014-Aug-21 16:33N 51°16' E 003°51'0 0.0
2014-Aug-21 15:33N 51°16' E 003°51'0 0.0
2014-Aug-21 14:32N 51°16' E 003°51'0 0.0
2014-Aug-21 13:33N 51°16' E 003°51'0 0.0
2014-Aug-21 12:33N 51°16' E 003°51'2 1.8
2014-Aug-21 11:33N 51°18' E 003°50'2 2.5
2014-Aug-21 10:34N 51°20' E 003°49'6 6.2
2014-Aug-21 09:34N 51°25' E 003°42'1110.6
2014-Aug-21 08:33N 51°30' E 003°27'1111.3
2014-Aug-21 07:33N 51°40' E 003°18'7 7.2
2014-Aug-21 06:33N 51°46' E 003°13'9 7.0
2014-Aug-21 05:19N 51°54' E 003°18'10910.1
2014-Aug-20 18:32N 53°30' E 004°45'1110.3
2014-Aug-20 17:29N 53°35' E 005°02'9 9.5
2014-Aug-20 16:33N 53°38' E 005°16'9 8.8
2014-Aug-20 15:33N 53°41' E 005°30'8 8.3
2014-Aug-20 14:33N 53°43' E 005°43'9 8.5
2014-Aug-20 13:33N 53°46' E 005°57'48 9.0
2014-Aug-20 08:12N 53°58' E 007°16'7 8.6
2014-Aug-20 07:22N 53°60' E 007°28'7 8.6
2014-Aug-20 06:34N 54°01' E 007°40'7 6.7
2014-Aug-20 05:33N 54°01' E 007°51'7 6.6
2014-Aug-20 04:33N 54°01' E 008°02'8 7.5
2014-Aug-20 03:33N 54°00' E 008°15'7 6.9
2014-Aug-20 02:33N 53°59' E 008°26'1010.2
2014-Aug-20 01:33N 53°54' E 008°42'1211.6
2014-Aug-20 00:34N 53°51' E 009°01'6 5.5
2014-Aug-19 23:33N 53°54' E 009°09'8 7.6
2014-Aug-19 22:33N 53°60' E 009°17'9 9.2
2014-Aug-19 21:33N 54°09' E 009°21'9 9.2
2014-Aug-19 20:33N 54°13' E 009°35'71 6.4
2014-Aug-19 09:30N 54°30' E 011°33'16 8.4
2014-Aug-19 07:32N 54°27' E 012°01'7 7.4
2014-Aug-19 06:33N 54°30' E 012°12'9 8.9
2014-Aug-19 05:33N 54°38' E 012°18'9 9.1
2014-Aug-19 04:33N 54°43' E 012°32'16 7.9
2014-Aug-19 02:31N 54°50' E 012°57'9 8.6
2014-Aug-19 01:30N 54°53' E 013°11'9 8.4
2014-Aug-19 00:22N 54°57' E 013°26'6 7.3
2014-Aug-18 23:33N 54°59' E 013°36'33 6.3
2014-Aug-18 18:21N 55°18' E 014°23'6 5.8
2014-Aug-18 17:20N 55°22' E 014°30'7 5.8
2014-Aug-18 16:03N 55°27' E 014°39'3 6.9
2014-Aug-18 15:33N 55°30' E 014°44'7 6.5
2014-Aug-18 14:27N 55°33' E 014°54'21 6.6
2014-Aug-18 11:15N 55°44' E 015°26'3 5.0
2014-Aug-18 10:33N 55°46' E 015°32'13 6.7
2014-Aug-18 08:33N 55°52' E 015°52'7 7.4
2014-Aug-18 07:33N 55°56' E 016°04'8 8.1
2014-Aug-18 06:33N 56°00' E 016°16'  
Track history (hours):
 
Tides and Currents Weather Stations Pressure Air Temp Water Temp Dewpoint Dewpoint Depression Visibility Wind Speed Wind Dir Waves Ship Positions

Humberborg

Last reported at 2014-Aug-22 09:30 UTC. Time now 2014-Aug-22 09:56 UTC.
Position N 51°16' E 003°51'.

Length 114 m; draft 6.2 m.

Type: Cargo ship. MMSI: 246012000.

Date/timePositionNaut miles runAvg speedWind from/ knotsBaromVisibWave heightAir tempDewpointWater temp
2014-Aug-22 09:30N 51°16' E 003°51'0 0.0
2014-Aug-22 08:30N 51°16' E 003°51'0 0.0
2014-Aug-22 07:33N 51°16' E 003°51'0 0.0
2014-Aug-22 06:30N 51°16' E 003°51'0 0.0
2014-Aug-22 05:33N 51°16' E 003°51'0 0.0
2014-Aug-22 04:33N 51°16' E 003°51'0 0.0
2014-Aug-22 03:33N 51°16' E 003°51'0 0.0
2014-Aug-22 02:33N 51°16' E 003°51'0 0.0
2014-Aug-22 01:33N 51°16' E 003°51'0 0.0
2014-Aug-22 00:33N 51°16' E 003°51'0 0.0
2014-Aug-21 23:33N 51°16' E 003°51'0 0.0
2014-Aug-21 22:33N 51°16' E 003°51'0 0.0
2014-Aug-21 21:33N 51°16' E 003°51'0 0.0
2014-Aug-21 20:33N 51°16' E 003°51'0 0.0
2014-Aug-21 19:32N 51°16' E 003°51'0 0.0
2014-Aug-21 18:33N 51°16' E 003°51'0 0.0
2014-Aug-21 17:33N 51°16' E 003°51'0 0.0
2014-Aug-21 16:33N 51°16' E 003°51'0 0.0
2014-Aug-21 15:33N 51°16' E 003°51'0 0.0
2014-Aug-21 14:32N 51°16' E 003°51'0 0.0
2014-Aug-21 13:33N 51°16' E 003°51'0 0.0
2014-Aug-21 12:33N 51°16' E 003°51'2 1.8
2014-Aug-21 11:33N 51°18' E 003°50'2 2.5
2014-Aug-21 10:34N 51°20' E 003°49'6 6.2
2014-Aug-21 09:34N 51°25' E 003°42'1110.6
2014-Aug-21 08:33N 51°30' E 003°27'1111.3
2014-Aug-21 07:33N 51°40' E 003°18'7 7.2
2014-Aug-21 06:33N 51°46' E 003°13'9 7.0
2014-Aug-21 05:19N 51°54' E 003°18'10910.1
2014-Aug-20 18:32N 53°30' E 004°45'1110.3
2014-Aug-20 17:29N 53°35' E 005°02'9 9.5
2014-Aug-20 16:33N 53°38' E 005°16'9 8.8
2014-Aug-20 15:33N 53°41' E 005°30'8 8.3
2014-Aug-20 14:33N 53°43' E 005°43'9 8.5
2014-Aug-20 13:33N 53°46' E 005°57'48 9.0
2014-Aug-20 08:12N 53°58' E 007°16'7 8.6
2014-Aug-20 07:22N 53°60' E 007°28'7 8.6
2014-Aug-20 06:34N 54°01' E 007°40'7 6.7
2014-Aug-20 05:33N 54°01' E 007°51'7 6.6
2014-Aug-20 04:33N 54°01' E 008°02'8 7.5
2014-Aug-20 03:33N 54°00' E 008°15'7 6.9
2014-Aug-20 02:33N 53°59' E 008°26'1010.2
2014-Aug-20 01:33N 53°54' E 008°42'1211.6
2014-Aug-20 00:34N 53°51' E 009°01'6 5.5
2014-Aug-19 23:33N 53°54' E 009°09'8 7.6
2014-Aug-19 22:33N 53°60' E 009°17'9 9.2
2014-Aug-19 21:33N 54°09' E 009°21'9 9.2
2014-Aug-19 20:33N 54°13' E 009°35'71 6.4
2014-Aug-19 09:30N 54°30' E 011°33'16 8.4
2014-Aug-19 07:32N 54°27' E 012°01'7 7.4
2014-Aug-19 06:33N 54°30' E 012°12'9 8.9
2014-Aug-19 05:33N 54°38' E 012°18'9 9.1
2014-Aug-19 04:33N 54°43' E 012°32'16 7.9
2014-Aug-19 02:31N 54°50' E 012°57'9 8.6
2014-Aug-19 01:30N 54°53' E 013°11'9 8.4
2014-Aug-19 00:22N 54°57' E 013°26'6 7.3
2014-Aug-18 23:33N 54°59' E 013°36'33 6.3
2014-Aug-18 18:21N 55°18' E 014°23'6 5.8
2014-Aug-18 17:20N 55°22' E 014°30'7 5.8
2014-Aug-18 16:03N 55°27' E 014°39'3 6.9
2014-Aug-18 15:33N 55°30' E 014°44'7 6.5
2014-Aug-18 14:27N 55°33' E 014°54'21 6.6
2014-Aug-18 11:15N 55°44' E 015°26'3 5.0
2014-Aug-18 10:33N 55°46' E 015°32'13 6.7
2014-Aug-18 08:33N 55°52' E 015°52'7 7.4
2014-Aug-18 07:33N 55°56' E 016°04'8 8.1
2014-Aug-18 06:33N 56°00' E 016°16'  

Dump ship's entire track history